Time;durP1;ratioP1;P1;durP2;ratioP2;P2;SDS_P1;SDS_P2;PMS_P1;PMS_P2;Temp;Humidity;BMP_temperature;BMP_pressure;BME280_temperature;BME280_humidity;BME280_pressure;Samples;Min_cycle;Max_cycle;Signal;HPM_P1;HPM_P2
2022/10/13 16:34:26;;;;;;;1.20;1.20;;;20.00;98.30;;;;;;5151417;27;20529;-63
2022/10/13 16:36:53;;;;;;;2.17;2.00;;;20.00;98.00;;;;;;5151923;27;20528;-64
2022/10/13 16:39:23;;;;;;;1.80;1.70;;;20.00;97.60;;;;;;5151853;27;20468;-64
2022/10/13 16:41:50;;;;;;;1.90;1.80;;;20.10;97.50;;;;;;5145119;27;20457;-64
2022/10/13 16:44:17;;;;;;;1.37;1.37;;;20.20;97.00;;;;;;5130627;27;20429;-64
2022/10/13 16:46:44;;;;;;;1.43;1.43;;;20.30;96.40;;;;;;5131010;27;20428;-64
2022/10/13 16:49:12;;;;;;;1.37;1.37;;;20.30;96.00;;;;;;5131423;27;20489;-66
2022/10/13 16:51:40;;;;;;;1.80;1.70;;;20.40;95.70;;;;;;5134380;27;20452;-63
2022/10/13 16:54:08;;;;;;;1.50;1.50;;;20.40;95.50;;;;;;5151383;27;20476;-64
2022/10/13 16:56:35;;;;;;;1.80;1.70;;;20.50;95.50;;;;;;5151137;27;20788;-67
2022/10/13 16:59:04;;;;;;;1.60;1.60;;;20.50;95.60;;;;;;5151128;27;20782;-68
2022/10/13 17:01:33;;;;;;;2.00;1.90;;;20.50;95.00;;;;;;5148473;27;20468;-65
2022/10/13 17:04:00;;;;;;;1.97;1.87;;;20.50;95.20;;;;;;5130487;27;20443;-65
2022/10/13 17:06:28;;;;;;;1.70;1.60;;;20.50;95.60;;;;;;5129550;27;20520;-64
2022/10/13 17:08:57;;;;;;;1.60;1.50;;;20.50;95.20;;;;;;5130712;27;20200;-68
2022/10/13 17:11:27;;;;;;;1.70;1.57;;;20.50;94.50;;;;;;5130928;27;20524;-66
2022/10/13 17:13:55;;;;;;;2.03;1.50;;;20.60;94.10;;;;;;5130562;27;20576;-64
2022/10/13 17:16:22;;;;;;;1.77;1.67;;;20.60;94.20;;;;;;5130376;27;20444;-62
2022/10/13 17:18:49;;;;;;;1.80;1.70;;;20.60;94.70;;;;;;5130671;27;20437;-64
2022/10/13 17:21:17;;;;;;;1.73;1.63;;;20.50;94.70;;;;;;5130324;27;20543;-62
2022/10/13 17:23:44;;;;;;;1.80;1.70;;;20.50;94.80;;;;;;5141535;27;20490;-63
2022/10/13 17:26:14;;;;;;;2.00;1.90;;;20.50;95.00;;;;;;5130524;27;20512;-64
2022/10/13 17:28:42;;;;;;;4.23;1.80;;;20.50;95.00;;;;;;5130156;27;20472;-61
2022/10/13 17:31:11;;;;;;;1.47;1.43;;;20.50;95.00;;;;;;5130287;27;21036;-62
2022/10/13 17:33:40;;;;;;;1.87;1.67;;;20.50;95.00;;;;;;5130183;27;20504;-65
2022/10/13 17:36:10;;;;;;;1.80;1.70;;;20.50;95.10;;;;;;5130294;27;20445;-64
2022/10/13 17:38:37;;;;;;;3.13;1.63;;;20.50;95.20;;;;;;5130083;27;20437;-67
2022/10/13 17:41:07;;;;;;;1.80;1.70;;;20.50;95.20;;;;;;5130164;27;20475;-63
2022/10/13 17:43:37;;;;;;;2.10;1.63;;;20.50;95.00;;;;;;5130516;27;20448;-62
2022/10/13 17:46:08;;;;;;;3.17;1.90;;;20.50;95.80;;;;;;5117140;27;20537;-62
2022/10/13 17:48:35;;;;;;;1.80;1.70;;;20.50;95.50;;;;;;5122896;27;20437;-61
2022/10/13 17:51:03;;;;;;;1.50;1.40;;;20.60;95.50;;;;;;5136500;27;20618;-59
2022/10/13 17:53:30;;;;;;;1.37;1.27;;;20.50;95.40;;;;;;5129577;27;20473;-62
2022/10/13 17:56:00;;;;;;;1.73;1.63;;;20.60;95.50;;;;;;5116373;28;20477;-62
2022/10/13 17:58:26;;;;;;;2.30;2.10;;;20.60;95.50;;;;;;5115994;28;20864;-61
2022/10/13 18:00:55;;;;;;;2.10;2.00;;;20.60;95.40;;;;;;5116246;28;20910;-65
2022/10/13 18:03:23;;;;;;;1.50;1.30;;;20.60;95.30;;;;;;5126815;27;20502;-62
2022/10/13 18:05:50;;;;;;;1.80;1.70;;;20.60;95.10;;;;;;5136328;27;20952;-63
2022/10/13 18:08:17;;;;;;;1.03;1.03;;;20.60;95.00;;;;;;5136214;27;20441;-62
2022/10/13 18:10:44;;;;;;;2.20;1.50;;;20.60;94.90;;;;;;5136340;27;20502;-65
2022/10/13 18:13:11;;;;;;;1.63;1.53;;;20.60;95.20;;;;;;5126301;27;20483;-64
2022/10/13 18:15:41;;;;;;;4.77;3.63;;;20.60;95.10;;;;;;5115882;28;20452;-64
2022/10/13 18:18:10;;;;;;;1.80;1.70;;;20.60;95.70;;;;;;5116124;28;20470;-64
2022/10/13 18:20:38;;;;;;;1.20;1.20;;;20.60;95.50;;;;;;5115876;28;20958;-65
2022/10/13 18:23:06;;;;;;;1.57;1.57;;;20.60;95.40;;;;;;5124329;27;20461;-65
2022/10/13 18:25:37;;;;;;;1.53;1.43;;;20.70;96.70;;;;;;5136163;27;20472;-63
2022/10/13 18:28:05;;;;;;;1.53;1.43;;;20.80;97.20;;;;;;5136001;27;20437;-59
2022/10/13 18:30:33;;;;;;;1.93;1.80;;;20.90;96.80;;;;;;5136855;27;20541;-63
2022/10/13 18:33:00;;;;;;;1.10;1.10;;;20.90;96.70;;;;;;5128594;27;21013;-64
2022/10/13 18:35:30;;;;;;;1.50;1.40;;;21.00;96.90;;;;;;5116715;27;20911;-62
2022/10/13 18:37:58;;;;;;;1.30;1.20;;;21.10;96.90;;;;;;5116579;28;20466;-62
2022/10/13 18:40:25;;;;;;;1.00;1.00;;;21.10;96.60;;;;;;5116297;27;20457;-61
2022/10/13 18:42:52;;;;;;;1.40;1.30;;;21.20;96.80;;;;;;5137154;27;20459;-61
2022/10/13 18:45:20;;;;;;;1.40;1.30;;;21.20;97.10;;;;;;5137397;27;20940;-60
2022/10/13 18:47:51;;;;;;;1.00;1.00;;;21.20;96.80;;;;;;5136924;27;20445;-59
2022/10/13 18:50:19;;;;;;;1.30;1.30;;;21.20;96.80;;;;;;5136875;27;20862;-62
2022/10/13 18:52:47;;;;;;;1.30;1.30;;;21.30;97.10;;;;;;5118590;27;20461;-63
2022/10/13 18:55:14;;;;;;;1.23;1.23;;;21.30;97.20;;;;;;5116004;28;20445;-63
2022/10/13 18:57:41;;;;;;;1.17;1.17;;;21.30;97.60;;;;;;5115961;28;20525;-63
2022/10/13 19:00:10;;;;;;;1.73;1.20;;;21.30;96.90;;;;;;5117102;28;20448;-63
